createdAt,value
2019-05-16T00:01:05.104Z,91.09
2019-05-16T00:03:11.683Z,91.08
2019-05-16T00:05:18.791Z,91.14
2019-05-16T00:07:28.712Z,91.24
2019-05-16T00:09:35.365Z,91.28
2019-05-16T00:11:41.936Z,91.27
2019-05-16T00:13:48.964Z,91.28
2019-05-16T00:15:55.649Z,91.27
2019-05-16T00:18:02.337Z,91.32
2019-05-16T00:20:10.589Z,91.31
2019-05-16T00:22:18.221Z,91.29
2019-05-16T00:24:26.110Z,91.26
2019-05-16T00:26:32.643Z,91.27
2019-05-16T00:28:39.273Z,91.23
2019-05-16T00:30:48.503Z,91.22
2019-05-16T00:32:54.258Z,91.23
2019-05-16T00:35:00.792Z,91.24
2019-05-16T00:37:08.630Z,91.22
2019-05-16T00:39:15.524Z,91.25
2019-05-16T00:41:22.180Z,91.25
2019-05-16T00:43:29.856Z,91.25
2019-05-16T00:45:38.544Z,91.25
2019-05-16T00:47:44.794Z,91.30
2019-05-16T00:49:52.342Z,91.34
2019-05-16T00:51:58.827Z,91.34
2019-05-16T00:54:05.471Z,91.39
2019-05-16T00:56:12.677Z,91.50
2019-05-16T00:58:20.098Z,91.49
2019-05-16T01:00:49.917Z,91.47
2019-05-16T01:02:57.873Z,91.48
2019-05-16T01:05:05.083Z,91.51
2019-05-16T01:07:12.020Z,91.49
2019-05-16T01:09:18.871Z,91.48
2019-05-16T01:11:27.658Z,91.49
2019-05-16T01:13:33.764Z,91.48
2019-05-16T01:15:40.444Z,91.53
2019-05-16T01:17:48.363Z,91.52
2019-05-16T01:19:55.152Z,91.50
2019-05-16T01:22:01.678Z,91.54
2019-05-16T01:24:08.272Z,91.55
2019-05-16T01:26:14.745Z,91.53
2019-05-16T01:28:21.378Z,91.52
2019-05-16T01:30:28.683Z,91.53
2019-05-16T01:32:35.518Z,91.58
2019-05-16T01:34:44.058Z,91.67
2019-05-16T01:36:50.616Z,91.70
2019-05-16T01:38:58.473Z,91.75
2019-05-16T01:41:05.129Z,91.77
2019-05-16T01:43:12.312Z,91.78
2019-05-16T01:45:20.398Z,91.77
2019-05-16T01:47:28.825Z,91.78
2019-05-16T01:49:35.185Z,91.81
2019-05-16T01:51:41.586Z,91.87
2019-05-16T01:53:48.890Z,91.99
2019-05-16T01:55:57.856Z,92.09
2019-05-16T01:58:03.865Z,92.13
2019-05-16T02:00:11.536Z,92.21
2019-05-16T02:02:19.255Z,92.27
2019-05-16T02:04:25.809Z,92.32
2019-05-16T02:06:32.337Z,92.33
2019-05-16T02:08:38.829Z,92.36
2019-05-16T02:10:47.668Z,92.37
2019-05-16T02:12:53.525Z,92.39
2019-05-16T02:15:00.139Z,92.39
2019-05-16T02:17:08.679Z,92.40
2019-05-16T02:19:14.891Z,92.37
2019-05-16T02:21:21.501Z,92.39
2019-05-16T02:23:27.964Z,92.36
2019-05-16T02:25:34.557Z,92.37
2019-05-16T02:27:42.066Z,92.41
2019-05-16T02:29:50.554Z,92.43
2019-05-16T02:31:56.737Z,92.41
2019-05-16T02:34:04.954Z,92.40
2019-05-16T02:36:13.243Z,92.33
2019-05-16T02:38:21.103Z,92.27
2019-05-16T02:40:31.030Z,92.25
2019-05-16T02:42:36.631Z,92.23
2019-05-16T02:44:43.159Z,92.25
2019-05-16T02:46:50.816Z,92.22
2019-05-16T02:49:00.600Z,92.22
2019-05-16T02:51:10.812Z,92.23
2019-05-16T02:53:15.522Z,92.22
2019-05-16T02:55:22.067Z,92.16
2019-05-16T02:57:31.345Z,92.13
2019-05-16T02:59:36.833Z,92.11
2019-05-16T03:01:43.419Z,92.11
2019-05-16T03:03:51.576Z,92.11
2019-05-16T03:06:01.428Z,92.14
2019-05-16T03:08:11.748Z,92.18
2019-05-16T03:10:20.141Z,92.13
2019-05-16T03:12:30.967Z,92.11
2019-05-16T03:14:36.493Z,92.05
2019-05-16T03:16:44.811Z,92.08
2019-05-16T03:18:53.964Z,92.03
2019-05-16T03:21:01.572Z,92.02
2019-05-16T03:23:10.992Z,92.02
2019-05-16T03:25:16.158Z,91.98
2019-05-16T03:27:22.630Z,91.99
2019-05-16T03:29:30.907Z,91.97
2019-05-16T03:31:43.722Z,91.95
2019-05-16T03:33:52.201Z,91.94
2019-05-16T03:35:55.451Z,91.95
2019-05-16T03:38:05.333Z,92.01
2019-05-16T03:40:17.236Z,92.01
2019-05-16T03:42:23.717Z,92.06
2019-05-16T03:44:31.793Z,92.11
2019-05-16T03:46:41.403Z,92.06
2019-05-16T03:48:46.525Z,91.99
2019-05-16T03:50:53.176Z,91.94
2019-05-16T03:53:01.611Z,91.86
2019-05-16T03:55:11.042Z,91.83
2019-05-16T03:57:21.359Z,91.77
2019-05-16T03:59:33.301Z,91.77
2019-05-16T04:01:46.629Z,91.84
2019-05-16T04:04:05.877Z,91.81
2019-05-16T04:06:13.363Z,91.73
2019-05-16T04:08:24.517Z,91.69
2019-05-16T04:10:30.914Z,91.62
2019-05-16T04:12:36.672Z,91.47
2019-05-16T04:14:46.272Z,91.38
2019-05-16T04:16:55.003Z,91.31
2019-05-16T04:19:11.451Z,91.24
2019-05-16T04:21:21.850Z,91.19
2019-05-16T04:23:31.376Z,91.18
2019-05-16T04:25:36.768Z,91.11
2019-05-16T04:28:01.057Z,91.06
2019-05-16T04:30:11.231Z,91.04
2019-05-16T04:32:20.813Z,90.99
2019-05-16T04:34:27.309Z,90.96
2019-05-16T04:36:55.728Z,90.84
2019-05-16T04:39:20.763Z,90.90
2019-05-16T04:41:21.580Z,90.95
2019-05-16T04:43:31.579Z,90.84
2019-05-16T04:45:37.556Z,90.90
2019-05-16T04:47:44.072Z,90.86
2019-05-16T04:50:01.259Z,90.69
2019-05-16T04:52:04.485Z,90.49
2019-05-16T04:54:11.561Z,90.50
2019-05-16T04:56:21.604Z,90.62
2019-05-16T04:58:27.865Z,90.50
2019-05-16T05:00:44.989Z,90.48
2019-05-16T05:03:01.317Z,90.20
2019-05-16T05:05:07.808Z,90.10
2019-05-16T05:07:16.945Z,90.01
2019-05-16T05:09:24.650Z,89.77
2019-05-16T05:11:32.460Z,89.58
2019-05-16T05:13:41.286Z,89.60
2019-05-16T05:15:47.091Z,89.47
2019-05-16T05:17:54.887Z,89.29
2019-05-16T05:20:01.426Z,89.04
2019-05-16T05:22:10.348Z,88.81
2019-05-16T05:24:16.101Z,88.72
2019-05-16T05:26:26.882Z,88.26
2019-05-16T05:28:33.620Z,87.56
2019-05-16T05:30:44.250Z,87.36
2019-05-16T05:32:52.602Z,87.46
2019-05-16T05:34:59.848Z,87.19
2019-05-16T05:37:06.648Z,87.34
2019-05-16T05:39:15.626Z,87.42
2019-05-16T05:41:21.376Z,87.33
2019-05-16T05:43:30.311Z,87.25
2019-05-16T05:45:36.097Z,87.32
2019-05-16T05:47:43.854Z,87.30
2019-05-16T05:49:51.405Z,87.29
2019-05-16T05:51:57.869Z,86.99
2019-05-16T05:54:04.489Z,86.73
2019-05-16T05:56:11.517Z,86.38
2019-05-16T05:58:20.369Z,86.10
2019-05-16T06:00:26.456Z,86.10
2019-05-16T06:02:32.995Z,86.06
2019-05-16T06:04:39.647Z,86.16
2019-05-16T06:06:46.126Z,85.88
2019-05-16T06:08:52.750Z,85.08
2019-05-16T06:11:00.757Z,84.91
2019-05-16T06:13:07.483Z,84.08
2019-05-16T06:15:14.718Z,83.83
2019-05-16T06:17:21.223Z,83.04
2019-05-16T06:19:29.694Z,83.03
2019-05-16T06:21:35.959Z,83.13
2019-05-16T06:23:43.656Z,82.55
2019-05-16T06:25:51.161Z,82.52
2019-05-16T06:28:00.053Z,82.15
2019-05-16T06:30:11.127Z,82.13
2019-05-16T06:32:16.907Z,82.44
2019-05-16T06:34:23.520Z,82.59
2019-05-16T06:36:30.524Z,82.77
2019-05-16T06:38:37.270Z,82.68
2019-05-16T06:40:43.739Z,82.39
2019-05-16T06:42:50.975Z,81.61
2019-05-16T06:44:57.691Z,81.76
2019-05-16T06:47:15.967Z,81.50
2019-05-16T06:49:12.531Z,81.59
2019-05-16T06:51:20.042Z,81.15
2019-05-16T06:53:26.750Z,80.00
2019-05-16T06:55:33.130Z,79.97
2019-05-16T06:57:40.947Z,79.82
2019-05-16T06:59:49.878Z,79.45
2019-05-16T07:01:55.992Z,80.19
2019-05-16T07:04:04.959Z,80.20
2019-05-16T07:06:26.225Z,80.29
2019-05-16T07:08:20.492Z,80.86
2019-05-16T07:10:27.497Z,81.66
2019-05-16T07:12:34.285Z,81.97
2019-05-16T07:14:42.339Z,82.16
2019-05-16T07:16:49.663Z,82.95
2019-05-16T07:18:56.373Z,82.58
2019-05-16T07:21:03.143Z,83.27
2019-05-16T07:23:10.147Z,83.63
2019-05-16T07:25:17.821Z,83.81
2019-05-16T07:27:24.355Z,83.13
2019-05-16T07:29:31.023Z,83.21
2019-05-16T07:31:37.670Z,82.20
2019-05-16T07:33:44.272Z,81.43
2019-05-16T07:35:51.574Z,80.53
2019-05-16T07:38:00.463Z,78.66
2019-05-16T07:40:19.123Z,75.62
2019-05-16T07:42:15.857Z,71.50
2019-05-16T07:44:24.329Z,68.83
2019-05-16T07:46:31.524Z,61.76
2019-05-16T07:48:40.446Z,55.74
2019-05-16T07:50:54.504Z,55.58
2019-05-16T07:53:01.432Z,57.39
2019-05-16T07:55:11.160Z,60.04
2019-05-16T07:57:22.949Z,61.15
2019-05-16T07:59:29.929Z,61.53
2019-05-16T08:01:36.581Z,62.00
2019-05-16T08:03:44.141Z,62.86
2019-05-16T08:05:51.831Z,63.84
2019-05-16T08:08:00.045Z,62.44
2019-05-16T08:10:11.087Z,62.77
2019-05-16T08:12:23.465Z,61.06
2019-05-16T08:14:25.850Z,60.63
2019-05-16T08:16:32.306Z,61.11
2019-05-16T08:18:41.697Z,61.11
2019-05-16T08:20:47.201Z,62.39
2019-05-16T08:22:53.932Z,63.77
2019-05-16T08:25:02.435Z,65.73
2019-05-16T08:27:12.173Z,67.60
2019-05-16T08:29:21.986Z,69.98
2019-05-16T08:31:31.553Z,71.88
2019-05-16T08:33:41.293Z,72.38
2019-05-16T08:35:46.316Z,71.99
2019-05-16T08:37:52.814Z,70.92
2019-05-16T08:40:00.359Z,70.17
2019-05-16T08:42:08.490Z,69.04
2019-05-16T08:44:16.763Z,68.13
2019-05-16T08:46:24.919Z,69.40
2019-05-16T08:48:32.149Z,69.83
2019-05-16T08:50:42.119Z,71.08
2019-05-16T08:52:52.335Z,71.65
2019-05-16T08:54:55.945Z,72.63
2019-05-16T08:59:13.514Z,73.48
2019-05-16T09:01:21.759Z,73.74
2019-05-16T09:03:27.547Z,74.61
2019-05-16T09:05:34.196Z,75.67
2019-05-16T09:07:40.723Z,75.66
2019-05-16T09:09:59.823Z,77.14
2019-05-16T09:10:21.441Z,72.74
2019-05-16T09:12:10.057Z,77.01
2019-05-16T09:14:17.459Z,78.41
2019-05-16T09:16:27.558Z,78.94
2019-05-16T09:18:41.272Z,79.49
2019-05-16T09:20:57.650Z,79.72
2019-05-16T09:23:08.904Z,80.75
2019-05-16T09:25:18.572Z,81.92
2019-05-16T09:27:27.315Z,82.13
2019-05-16T09:29:36.572Z,81.86
2019-05-16T09:31:42.147Z,81.03
2019-05-16T09:33:48.724Z,80.83
2019-05-16T09:35:57.253Z,80.28
2019-05-16T09:38:03.694Z,80.03
2019-05-16T09:40:11.130Z,80.22
2019-05-16T09:42:17.744Z,80.79
2019-05-16T09:44:24.237Z,80.63
2019-05-16T09:46:30.845Z,81.21
2019-05-16T09:48:38.159Z,81.07
2019-05-16T09:50:46.889Z,81.62
2019-05-16T09:52:53.275Z,81.68
2019-05-16T09:54:59.823Z,81.53
2019-05-16T09:57:06.685Z,81.81
2019-05-16T09:59:13.335Z,81.27
2019-05-16T10:01:19.952Z,81.24
2019-05-16T10:03:27.282Z,80.45
2019-05-16T10:05:37.143Z,79.53
2019-05-16T10:07:46.769Z,79.48
2019-05-16T10:09:52.078Z,79.60
2019-05-16T10:12:11.405Z,80.33
2019-05-16T10:14:08.156Z,80.65
2019-05-16T10:16:16.684Z,80.36
2019-05-16T10:18:22.869Z,80.25
2019-05-16T10:20:29.538Z,79.50
2019-05-16T10:22:37.374Z,79.72
2019-05-16T10:24:46.624Z,79.83
2019-05-16T10:26:53.982Z,79.83
2019-05-16T10:29:00.534Z,79.41
2019-05-16T10:31:07.137Z,79.63
2019-05-16T10:33:13.787Z,79.10
2019-05-16T10:35:20.610Z,78.58
2019-05-16T10:37:37.737Z,79.18
2019-05-16T10:39:49.235Z,79.21
2019-05-16T10:42:01.026Z,78.69
2019-05-16T10:44:10.694Z,78.55
2019-05-16T10:46:20.841Z,78.17
2019-05-16T10:48:27.400Z,77.81
2019-05-16T10:50:36.804Z,77.44
2019-05-16T10:52:48.912Z,77.60
2019-05-16T10:55:02.743Z,77.05
2019-05-16T10:57:08.872Z,75.57
2019-05-16T10:59:54.537Z,74.11
2019-05-16T11:01:31.828Z,73.19
2019-05-16T11:03:49.412Z,73.15
2019-05-16T11:06:03.095Z,73.02
2019-05-16T11:07:58.358Z,73.29
2019-05-16T11:10:07.341Z,74.32
2019-05-16T11:12:12.949Z,74.81
2019-05-16T11:14:19.205Z,74.87
2019-05-16T11:16:27.421Z,73.60
2019-05-16T11:18:34.047Z,72.96
2019-05-16T11:20:44.618Z,72.45
2019-05-16T11:22:49.231Z,72.40
2019-05-16T11:24:56.638Z,72.82
2019-05-16T11:27:03.210Z,72.32
2019-05-16T11:29:09.781Z,72.89
2019-05-16T11:31:17.652Z,73.64
2019-05-16T11:33:24.390Z,74.13
2019-05-16T11:35:31.974Z,74.96
2019-05-16T11:37:38.604Z,75.29
2019-05-16T11:39:46.610Z,75.81
2019-05-16T11:41:53.445Z,76.28
2019-05-16T11:43:59.974Z,76.99
2019-05-16T11:46:06.593Z,77.26
2019-05-16T11:48:13.041Z,77.33
2019-05-16T11:50:19.857Z,76.99
2019-05-16T11:52:26.444Z,76.99
2019-05-16T11:54:32.977Z,76.74
2019-05-16T11:56:39.524Z,77.13
2019-05-16T11:58:47.339Z,76.92
2019-05-16T12:00:54.228Z,76.84
2019-05-16T12:03:00.782Z,76.98
2019-05-16T12:05:07.586Z,77.29
2019-05-16T12:07:14.129Z,77.47
2019-05-16T12:09:20.552Z,77.33
2019-05-16T12:11:27.571Z,77.32
2019-05-16T12:13:36.666Z,77.37
2019-05-16T12:15:42.418Z,77.27
2019-05-16T12:18:00.776Z,76.02
2019-05-16T12:20:07.807Z,74.43
2019-05-16T12:22:14.315Z,72.97
2019-05-16T12:24:36.095Z,71.31
2019-05-16T12:26:37.255Z,70.40
2019-05-16T12:28:45.407Z,69.18
2019-05-16T12:30:59.235Z,68.05
2019-05-16T12:33:09.767Z,67.86
2019-05-16T12:35:17.578Z,66.76
2019-05-16T12:37:24.407Z,66.35
2019-05-16T12:39:30.970Z,65.02
2019-05-16T12:41:40.977Z,63.75
2019-05-16T12:43:52.619Z,63.06
2019-05-16T12:45:56.951Z,63.22
2019-05-16T12:48:03.624Z,62.44
2019-05-16T12:50:17.526Z,63.16
2019-05-16T12:52:22.978Z,63.15
2019-05-16T12:54:29.485Z,62.39
2019-05-16T12:56:37.801Z,62.00
2019-05-16T12:58:44.442Z,61.14
2019-05-16T13:00:57.343Z,61.75
2019-05-16T13:02:59.249Z,61.92
2019-05-16T13:05:08.565Z,62.27
2019-05-16T13:07:17.237Z,61.22
2019-05-16T13:09:23.401Z,60.96
2019-05-16T13:11:29.942Z,59.34
2019-05-16T13:13:37.597Z,57.98
2019-05-16T13:15:44.237Z,57.36
2019-05-16T13:17:50.707Z,58.22
2019-05-16T13:19:57.690Z,58.99
2019-05-16T13:22:07.154Z,59.31
2019-05-16T13:24:12.693Z,58.75
2019-05-16T13:26:19.161Z,58.49
2019-05-16T13:28:25.756Z,58.46
2019-05-16T13:30:32.415Z,57.87
2019-05-16T13:32:39.036Z,57.43
2019-05-16T13:34:45.497Z,57.23
2019-05-16T13:36:51.946Z,56.93
2019-05-16T13:38:58.504Z,56.40
2019-05-16T13:41:07.472Z,56.43
2019-05-16T13:43:13.293Z,55.80
2019-05-16T13:45:20.189Z,54.73
2019-05-16T13:47:26.924Z,54.42
2019-05-16T13:49:34.414Z,53.63
2019-05-16T13:51:40.890Z,54.69
2019-05-16T13:53:47.447Z,56.11
2019-05-16T13:56:01.715Z,55.64
2019-05-16T13:58:07.478Z,55.68
2019-05-16T14:00:17.353Z,55.69
2019-05-16T14:02:26.566Z,55.79
2019-05-16T14:04:32.421Z,55.90
2019-05-16T14:06:50.240Z,55.58
2019-05-16T14:09:13.766Z,55.84
2019-05-16T14:11:25.070Z,57.35
2019-05-16T14:13:32.873Z,57.84
2019-05-16T14:15:39.507Z,57.60
2019-05-16T14:17:49.105Z,56.96
2019-05-16T14:19:57.286Z,57.35
2019-05-16T14:22:04.119Z,56.41
2019-05-16T14:24:12.377Z,56.25
2019-05-16T14:26:20.232Z,55.98
2019-05-16T14:28:28.563Z,55.82
2019-05-16T14:30:37.216Z,55.07
2019-05-16T14:32:44.782Z,54.54
2019-05-16T14:34:52.992Z,53.95
2019-05-16T14:37:00.989Z,55.17
2019-05-16T14:39:08.750Z,55.22
2019-05-16T14:41:20.709Z,55.42
2019-05-16T14:43:27.384Z,54.38
2019-05-16T14:45:34.152Z,54.53
2019-05-16T14:47:40.614Z,54.17
2019-05-16T14:49:48.823Z,55.01
2019-05-16T14:51:57.868Z,55.45
2019-05-16T14:57:58.436Z,53.73
2019-05-16T15:00:07.384Z,52.13
2019-05-16T15:02:17.828Z,52.93
2019-05-16T15:04:23.408Z,52.61
2019-05-16T15:06:29.953Z,52.99
2019-05-16T15:08:36.423Z,53.31
2019-05-16T15:10:42.905Z,53.42
2019-05-16T15:12:49.520Z,53.27
2019-05-16T15:14:58.793Z,53.22
2019-05-16T15:17:07.059Z,51.85
2019-05-16T15:19:13.921Z,52.37
2019-05-16T15:21:21.526Z,52.31
2019-05-16T15:23:28.632Z,52.34
2019-05-16T15:25:37.512Z,52.02
2019-05-16T15:27:43.603Z,51.78
2019-05-16T15:29:50.912Z,51.52
2019-05-16T15:31:59.220Z,51.36
2019-05-16T15:34:05.776Z,51.38
2019-05-16T15:36:12.312Z,51.16
2019-05-16T15:38:18.887Z,50.25
2019-05-16T15:40:26.820Z,50.82
2019-05-16T15:42:33.667Z,51.92
2019-05-16T15:44:41.744Z,52.01
2019-05-16T15:46:48.750Z,52.13
2019-05-16T15:48:57.072Z,52.54
2019-05-16T15:51:08.708Z,52.17
2019-05-16T15:53:13.570Z,52.70
2019-05-16T15:55:21.126Z,53.20
2019-05-16T15:57:30.828Z,54.05
2019-05-16T15:59:37.650Z,54.81
2019-05-16T16:01:47.209Z,55.04
2019-05-16T16:03:52.727Z,55.69
2019-05-16T16:05:59.261Z,56.34
2019-05-16T16:08:06.881Z,56.61
2019-05-16T16:10:14.597Z,56.98
2019-05-16T16:12:22.865Z,57.60
2019-05-16T16:14:32.610Z,57.89
2019-05-16T16:16:39.136Z,57.97
2019-05-16T16:18:46.829Z,58.02
2019-05-16T16:20:53.710Z,58.19
2019-05-16T16:23:00.322Z,58.87
2019-05-16T16:25:08.160Z,58.99
2019-05-16T16:27:16.887Z,58.88
2019-05-16T16:29:22.919Z,59.02
2019-05-16T16:31:29.534Z,58.91
2019-05-16T16:33:37.457Z,59.41
2019-05-16T16:35:44.230Z,59.73
2019-05-16T16:37:50.783Z,60.08
2019-05-16T16:39:57.691Z,60.22
2019-05-16T16:42:04.319Z,60.06
2019-05-16T16:44:10.919Z,60.14
2019-05-16T16:46:17.367Z,60.24
2019-05-16T16:48:26.400Z,59.82
2019-05-16T16:50:32.163Z,59.78
2019-05-16T16:52:38.780Z,60.30
2019-05-16T16:54:47.653Z,60.54
2019-05-16T16:56:53.989Z,61.36
2019-05-16T16:59:00.561Z,61.43
2019-05-16T17:01:07.918Z,61.48
2019-05-16T17:03:16.558Z,61.54
2019-05-16T17:05:22.935Z,62.07
2019-05-16T17:07:31.094Z,64.11
2019-05-16T17:09:37.672Z,63.85
2019-05-16T17:11:46.436Z,64.87
2019-05-16T17:13:52.531Z,65.53
2019-05-16T17:15:59.202Z,66.04
2019-05-16T17:18:07.252Z,66.74
2019-05-16T17:20:15.472Z,66.64
2019-05-16T17:22:22.044Z,66.71
2019-05-16T17:24:28.676Z,67.00
2019-05-16T17:26:37.642Z,66.13
2019-05-16T17:28:43.620Z,66.33
2019-05-16T17:30:50.255Z,66.23
2019-05-16T17:32:56.966Z,65.04
2019-05-16T17:35:03.498Z,66.95
2019-05-16T17:37:11.065Z,67.84
2019-05-16T17:39:18.229Z,66.49
2019-05-16T17:41:27.186Z,66.66
2019-05-16T17:43:33.464Z,66.49
2019-05-16T17:45:40.266Z,65.78
2019-05-16T17:47:46.969Z,66.16
2019-05-16T17:49:53.509Z,66.46
2019-05-16T17:52:00.110Z,66.51
2019-05-16T17:54:07.327Z,66.74
2019-05-16T17:56:13.950Z,67.04
2019-05-16T17:58:20.474Z,67.03
2019-05-16T18:00:29.060Z,67.15
2019-05-16T18:02:37.263Z,67.25
2019-05-16T18:04:44.037Z,67.69
2019-05-16T18:06:52.259Z,68.40
2019-05-16T18:08:58.855Z,68.78
2019-05-16T18:11:07.136Z,69.51
2019-05-16T18:13:13.707Z,70.32
2019-05-16T18:15:22.933Z,70.93
2019-05-16T18:17:29.649Z,71.16
2019-05-16T18:19:37.275Z,72.10
2019-05-16T18:21:43.779Z,72.58
2019-05-16T18:23:50.192Z,74.26
2019-05-16T18:25:57.569Z,75.37
2019-05-16T18:28:04.926Z,77.32
2019-05-16T18:30:16.477Z,78.75
2019-05-16T18:32:22.538Z,79.81
2019-05-16T18:34:29.185Z,80.31
2019-05-16T18:36:35.656Z,81.60
2019-05-16T18:38:42.265Z,82.07
2019-05-16T18:40:48.974Z,82.46
2019-05-16T18:42:57.050Z,82.75
2019-05-16T18:45:08.144Z,83.77
2019-05-16T18:47:14.622Z,83.85
2019-05-16T18:49:23.997Z,84.19
2019-05-16T18:51:29.492Z,84.63
2019-05-16T18:53:37.395Z,84.81
2019-05-16T18:55:46.235Z,85.06
2019-05-16T18:57:52.934Z,85.10
2019-05-16T18:59:59.411Z,85.21
2019-05-16T19:02:09.854Z,85.55
2019-05-16T19:04:14.371Z,85.97
2019-05-16T19:06:20.947Z,86.11
2019-05-16T19:08:27.506Z,86.04
2019-05-16T19:10:36.458Z,86.37
2019-05-16T19:12:42.461Z,86.49
2019-05-16T19:14:49.148Z,87.01
2019-05-16T19:16:56.709Z,87.17
2019-05-16T19:19:03.492Z,87.26
2019-05-16T19:21:10.089Z,87.25
2019-05-16T19:23:17.479Z,87.42
2019-05-16T19:25:26.863Z,87.50
2019-05-16T19:27:32.659Z,87.59
2019-05-16T19:29:41.041Z,87.68
2019-05-16T19:31:50.459Z,87.83
2019-05-16T19:33:56.539Z,87.65
2019-05-16T19:36:03.305Z,87.75
2019-05-16T19:38:10.001Z,87.71
2019-05-16T19:40:18.746Z,87.74
2019-05-16T19:42:26.625Z,87.71
2019-05-16T19:44:33.477Z,87.85
2019-05-16T19:46:40.031Z,88.01
2019-05-16T19:48:46.597Z,88.41
2019-05-16T19:50:53.043Z,88.60
2019-05-16T19:52:59.538Z,88.60
2019-05-16T19:55:08.610Z,88.53
2019-05-16T19:57:17.475Z,88.71
2019-05-16T19:59:24.179Z,88.75
2019-05-16T20:01:30.794Z,88.82
2019-05-16T20:03:37.433Z,88.96
2019-05-16T20:05:47.630Z,89.20
2019-05-16T20:07:54.537Z,89.24
2019-05-16T20:10:01.019Z,89.11
2019-05-16T20:12:07.895Z,89.07
2019-05-16T20:14:16.946Z,89.06
2019-05-16T20:16:27.141Z,89.31
2019-05-16T20:18:32.981Z,89.50
2019-05-16T20:20:39.591Z,89.48
2019-05-16T20:22:46.267Z,89.48
2019-05-16T20:24:56.168Z,89.35
2019-05-16T20:27:05.071Z,89.26
2019-05-16T20:29:10.348Z,89.41
2019-05-16T20:31:17.201Z,89.46
2019-05-16T20:33:23.722Z,89.36
2019-05-16T20:35:30.299Z,89.37
2019-05-16T20:37:36.915Z,89.34
2019-05-16T20:39:43.323Z,89.42
2019-05-16T20:41:51.848Z,89.40
2019-05-16T20:43:58.433Z,89.65
2019-05-16T20:46:07.280Z,89.83
2019-05-16T20:48:15.333Z,90.05
2019-05-16T20:50:21.792Z,90.26
2019-05-16T20:52:28.314Z,90.42
2019-05-16T20:54:34.892Z,90.47
2019-05-16T20:56:41.323Z,90.41
2019-05-16T20:58:48.694Z,90.34
2019-05-16T21:01:01.309Z,90.21
2019-05-16T21:03:07.083Z,90.32
2019-05-16T21:05:17.727Z,90.33
2019-05-16T21:07:26.360Z,90.12
2019-05-16T21:09:33.341Z,90.12
2019-05-16T21:11:39.947Z,90.07
2019-05-16T21:13:48.556Z,90.28
2019-05-16T21:15:58.315Z,90.43
2019-05-16T21:18:07.353Z,90.33
2019-05-16T21:20:14.350Z,90.42
2019-05-16T21:22:21.889Z,90.59
2019-05-16T21:24:28.758Z,90.64
2019-05-16T21:26:36.855Z,90.46
2019-05-16T21:28:46.253Z,90.39
2019-05-16T21:30:52.862Z,90.42
2019-05-16T21:33:01.009Z,90.42
2019-05-16T21:35:08.574Z,90.32
2019-05-16T21:37:20.099Z,90.31
2019-05-16T21:39:26.471Z,90.31
2019-05-16T21:41:36.591Z,90.45
2019-05-16T21:43:43.777Z,90.43
2019-05-16T21:45:50.659Z,90.31
2019-05-16T21:47:57.270Z,90.28
2019-05-16T21:50:07.390Z,90.24
2019-05-16T21:52:14.432Z,90.15
2019-05-16T21:54:22.375Z,90.13
2019-05-16T21:56:28.808Z,90.07
2019-05-16T21:58:37.244Z,90.08
2019-05-16T22:00:48.668Z,90.07
2019-05-16T22:02:57.328Z,90.06
2019-05-16T22:05:06.351Z,90.09
2019-05-16T22:07:16.563Z,90.18
2019-05-16T22:09:22.922Z,90.22
2019-05-16T22:11:29.493Z,90.28
2019-05-16T22:13:38.517Z,90.29
2019-05-16T22:15:46.376Z,90.36
2019-05-16T22:17:56.635Z,90.37
2019-05-16T22:20:04.309Z,90.43
2019-05-16T22:22:11.661Z,90.38
2019-05-16T22:24:18.231Z,90.38
2019-05-16T22:26:27.068Z,90.42
2019-05-16T22:28:34.007Z,90.46
2019-05-16T22:30:41.119Z,90.50
2019-05-16T22:32:49.033Z,90.59
2019-05-16T22:34:59.538Z,90.77
2019-05-16T22:37:03.745Z,90.79
2019-05-16T22:39:10.417Z,90.87
2019-05-16T22:41:17.401Z,90.87
2019-05-16T22:43:26.660Z,90.83
2019-05-16T22:45:33.525Z,90.81
2019-05-16T22:47:41.139Z,90.76
2019-05-16T22:49:47.849Z,90.73
2019-05-16T22:51:54.238Z,90.59
2019-05-16T22:54:00.685Z,90.59
2019-05-16T22:56:07.627Z,90.59
2019-05-16T22:58:16.292Z,90.61
2019-05-16T23:00:26.574Z,90.59
2019-05-16T23:02:33.293Z,90.57
2019-05-16T23:04:40.908Z,90.64
2019-05-16T23:06:47.602Z,90.66
2019-05-16T23:08:56.208Z,90.68
2019-05-16T23:11:02.247Z,90.74
2019-05-16T23:13:08.876Z,90.66
2019-05-16T23:15:17.069Z,90.65
2019-05-16T23:17:23.824Z,90.63
2019-05-16T23:19:30.298Z,90.65
2019-05-16T23:21:36.913Z,90.75
2019-05-16T23:23:43.673Z,90.74
2019-05-16T23:25:50.236Z,90.82
2019-05-16T23:27:56.771Z,90.83
2019-05-16T23:30:03.805Z,90.85
2019-05-16T23:32:10.596Z,90.79
2019-05-16T23:34:18.803Z,90.77
2019-05-16T23:36:26.527Z,90.77
2019-05-16T23:38:33.150Z,90.78
2019-05-16T23:40:39.649Z,90.84
2019-05-16T23:42:46.613Z,90.82
2019-05-16T23:44:53.119Z,90.77
2019-05-16T23:46:59.717Z,91.00
2019-05-16T23:49:07.286Z,90.95
2019-05-16T23:51:16.913Z,91.03
2019-05-16T23:53:23.645Z,91.37
2019-05-16T23:55:30.283Z,91.45
2019-05-16T23:57:37.557Z,91.48
2019-05-16T23:59:44.123Z,91.33
